»·PEaware :: N582WD KIFP-KBUR

N582WD :: KIFP-KBUR

FLIGHT INFORMATION

Flight Status: Arrived
Operator: Privately registered:
United States
More flights under this callsign
Pilot: Brandon V. (17971)
Aircraft: ECLIPSE 500
(EA50)
More flights by this aircraft type
Origin: KIFP Laughlin/Bullhead Intl
United States
Destination: KBUR Bob Hope-Burbank
United States
More flights between these airports :: More routes between these airports
Route: +EED JANNY4
File this flight plan on PilotEdge
Remarks:
Altitude:
(Current/Filed)
24,000ft
Speed:
(Current/Filed)
115kts
Departed: 29-Jun-18 04:02 PM
Arrived: 29-Jun-18 04:57 PM
Distance/Time
Traveled:
196nm/0:55
Distance/Time
To Go:
Arrived

Flight Plot

Page will automatically refresh every two minutes.

Flight plan parsing failed; only flown route is shown


Map Options




Map Legend


Flown Route
Filed Route
Departure Airport
Arrival Airport
Navaid (VOR, NDB)
Fix

Horizontal Profiles

Position Reports

Time Latitude Longitude Heading Altitude Ground
Speed
29-Jun-18 15:20 35.159758 -114.556367 266 678ft 0kts
29-Jun-18 15:21 35.159758 -114.556367 266 678ft 0kts
29-Jun-18 15:22 35.159758 -114.556367 266 678ft 0kts
29-Jun-18 15:23 35.159758 -114.556367 266 678ft 0kts
29-Jun-18 15:24 35.159758 -114.556367 266 678ft 0kts
29-Jun-18 15:25 35.159758 -114.556367 266 678ft 0kts
29-Jun-18 15:26 35.159758 -114.556367 266 678ft 0kts
29-Jun-18 15:27 35.159758 -114.556367 266 678ft 0kts
29-Jun-18 15:28 35.159758 -114.556367 266 678ft 0kts
29-Jun-18 15:29 35.159758 -114.556367 266 678ft 0kts
29-Jun-18 15:30 35.159758 -114.556367 266 678ft 0kts
29-Jun-18 15:31 35.159758 -114.556367 266 678ft 0kts
29-Jun-18 15:32 35.159758 -114.556367 266 678ft 0kts
29-Jun-18 15:37 35.159758 -114.556367 266 678ft 0kts
29-Jun-18 15:38 35.159758 -114.556367 266 678ft 0kts
29-Jun-18 15:39 35.159758 -114.556367 266 678ft 0kts
29-Jun-18 15:40 35.159758 -114.556367 266 678ft 0kts
29-Jun-18 15:41 35.159758 -114.556367 266 678ft 0kts
29-Jun-18 15:42 35.159758 -114.556367 266 678ft 0kts
29-Jun-18 15:43 35.159758 -114.556367 266 678ft 0kts
29-Jun-18 15:44 35.159758 -114.556367 266 678ft 0kts
29-Jun-18 15:45 35.159758 -114.556367 266 678ft 0kts
29-Jun-18 15:46 35.159758 -114.556367 266 678ft 0kts
29-Jun-18 15:47 35.159758 -114.556367 266 678ft 0kts
29-Jun-18 15:48 35.159758 -114.556367 266 678ft 0kts
29-Jun-18 15:49 35.159758 -114.556367 266 678ft 0kts
29-Jun-18 15:50 35.159758 -114.556367 266 678ft 0kts
29-Jun-18 15:51 35.159758 -114.556367 266 678ft 0kts
29-Jun-18 15:52 35.159758 -114.556367 266 678ft 0kts
29-Jun-18 15:53 35.159758 -114.556367 266 678ft 0kts
29-Jun-18 15:54 35.159758 -114.556367 266 678ft 0kts
29-Jun-18 15:55 35.159767 -114.556605 304 676ft 0kts
29-Jun-18 15:56 35.159820 -114.558322 355 660ft 11kts
29-Jun-18 15:57 35.163581 -114.558625 357 646ft 20kts
29-Jun-18 15:58 35.166195 -114.559194 275 635ft 0kts
29-Jun-18 15:59 35.166197 -114.559235 270 635ft 0kts
29-Jun-18 16:00 35.166198 -114.559240 270 635ft 0kts
29-Jun-18 16:01 35.164947 -114.560122 176 629ft 33kts
29-Jun-18 16:02 35.134835 -114.558348 174 1468ft 158kts
29-Jun-18 16:03 35.085565 -114.545612 167 3684ft 201kts
29-Jun-18 16:04 35.029251 -114.531798 169 6501ft 215kts
29-Jun-18 16:05 34.963053 -114.516806 170 6779ft 248kts
29-Jun-18 16:06 34.912911 -114.543264 276 8080ft 234kts
29-Jun-18 16:07 34.925316 -114.621530 273 10453ft 245kts
29-Jun-18 16:08 34.926452 -114.692851 268 12298ft 253kts
29-Jun-18 16:09 34.922490 -114.782484 265 13725ft 282kts
29-Jun-18 16:10 34.915786 -114.878897 265 15377ft 290kts
29-Jun-18 16:11 34.908114 -114.977166 264 16940ft 294kts
29-Jun-18 16:12 34.900028 -115.076541 264 18344ft 297kts
29-Jun-18 16:13 34.891842 -115.175038 264 19524ft 303kts
29-Jun-18 16:14 34.883164 -115.278076 265 20607ft 309kts
29-Jun-18 16:15 34.874351 -115.381809 265 21774ft 309kts
29-Jun-18 16:16 34.865366 -115.486600 266 22832ft 311kts
29-Jun-18 16:17 34.856463 -115.591164 266 23828ft 313kts
29-Jun-18 16:18 34.848888 -115.684747 266 23909ft 336kts
29-Jun-18 16:19 34.840086 -115.800360 267 23908ft 354kts
29-Jun-18 16:20 34.831538 -115.918192 267 23906ft 348kts
29-Jun-18 16:21 34.823594 -116.035620 267 23907ft 348kts
29-Jun-18 16:22 34.815938 -116.152835 268 23907ft 348kts
29-Jun-18 16:23 34.801105 -116.269768 269 23833ft 349kts
29-Jun-18 16:24 34.798122 -116.387740 271 23833ft 349kts
29-Jun-18 16:25 34.792327 -116.505375 265 23833ft 350kts
29-Jun-18 16:26 34.781026 -116.622384 266 23252ft 334kts
29-Jun-18 16:27 34.770631 -116.730398 265 21868ft 326kts
29-Jun-18 16:28 34.760082 -116.838256 265 21182ft 321kts
29-Jun-18 16:29 34.749369 -116.945269 265 20547ft 313kts
29-Jun-18 16:30 34.792839 -117.014112 4 20316ft 311kts
29-Jun-18 16:31 34.861393 -116.949420 41 19910ft 318kts
29-Jun-18 16:32 34.897212 -116.859046 110 19830ft 330kts
29-Jun-18 16:33 34.821395 -116.838652 226 19830ft 321kts
29-Jun-18 16:34 34.786406 -116.936347 251 19834ft 316kts
29-Jun-18 16:35 34.761480 -117.037996 264 19663ft 315kts
29-Jun-18 16:36 34.761416 -117.142308 255 18841ft 310kts
29-Jun-18 16:37 34.741305 -117.243118 260 18140ft 305kts
29-Jun-18 16:38 34.725830 -117.344127 261 17278ft 302kts
29-Jun-18 16:39 34.711689 -117.444113 261 16425ft 299kts
29-Jun-18 16:40 34.697894 -117.543549 262 15620ft 297kts
29-Jun-18 16:41 34.684541 -117.639869 262 14805ft 280kts
29-Jun-18 16:42 34.670759 -117.739032 261 14029ft 311kts
29-Jun-18 16:43 34.656392 -117.841668 261 13227ft 306kts
29-Jun-18 16:44 34.644678 -117.943405 263 12426ft 304kts
29-Jun-18 16:45 34.633503 -118.044885 263 11982ft 303kts
29-Jun-18 16:46 34.613222 -118.144520 256 11981ft 304kts
29-Jun-18 16:47 34.591401 -118.243501 255 10317ft 300kts
29-Jun-18 16:48 34.571826 -118.330768 257 8350ft 240kts
29-Jun-18 16:49 34.528204 -118.388460 221 6766ft 236kts
29-Jun-18 16:50 34.480282 -118.437211 221 5658ft 225kts
29-Jun-18 16:51 34.433698 -118.487802 212 5032ft 223kts
29-Jun-18 16:52 34.376663 -118.467670 151 5037ft 225kts
29-Jun-18 16:53 34.319430 -118.432036 143 4237ft 231kts
29-Jun-18 16:54 34.276642 -118.389830 140 3260ft 184kts
29-Jun-18 16:56 34.236092 -118.367229 163 1748ft 133kts
29-Jun-18 16:57 34.205583 -118.358552 167 737ft 83kts
29-Jun-18 16:58 34.196780 -118.356888 268 706ft 10kts
29-Jun-18 16:59 34.195646 -118.358248 272 706ft 5kts
29-Jun-18 17:00 34.195706 -118.358470 289 707ft 0kts
29-Jun-18 17:01 34.195706 -118.358470 289 707ft 0kts
29-Jun-18 17:02 34.195706 -118.358470 289 707ft 0kts
29-Jun-18 17:02 34.195706 -118.358470 289 707ft 0kts
29-Jun-18 17:04 34.195706 -118.358470 289 707ft 0kts
29-Jun-18 17:05 34.195706 -118.358470 289 707ft 0kts
29-Jun-18 17:06 34.195706 -118.358470 289 707ft 0kts

Navigation Log

Ident Type
Flight plan parsing failed, navigation log unavailable